Time;durP1;ratioP1;P1;durP2;ratioP2;P2;SDS_P1;SDS_P2;PMS_P1;PMS_P2;Temp;Humidity;BMP_temperature;BMP_pressure;BME280_temperature;BME280_humidity;BME280_pressure;Samples;Min_cycle;Max_cycle;Signal;HPM_P1;HPM_P2
2023/01/29 00:02:17;;;;;;;14.90;8.50;;;;;;;;;;5015333;28;20756;-52
2023/01/29 00:04:43;;;;;;;17.95;9.57;;;;;;;;;;5006470;28;20049;-53
2023/01/29 00:07:09;;;;;;;16.33;9.05;;;;;;;;;;5017418;28;20045;-52
2023/01/29 00:10:09;;;;;;;15.20;8.35;;;4.90;1.00;;;;;;5010942;28;20486;-52
2023/01/29 00:12:35;;;;;;;17.17;9.88;;;;;;;;;;4995805;28;20132;-51
2023/01/29 00:15:05;;;;;;;15.35;8.45;;;;;;;;;;5003739;28;20108;-55
2023/01/29 00:17:30;;;;;;;16.67;9.07;;;5.20;1.00;;;;;;5017167;28;20045;-54
2023/01/29 00:20:15;;;;;;;16.63;8.43;;;;;;;;;;5109995;23;20049;-59
2023/01/29 00:23:07;;;;;;;14.48;8.70;;;;;;;;;;5063453;28;20076;-57
2023/01/29 00:25:34;;;;;;;20.50;9.23;;;;;;;;;;5066353;28;20405;-59
2023/01/29 00:28:15;;;;;;;13.30;7.60;;;;;;;;;;5056984;28;20037;-59
2023/01/29 00:30:58;;;;;;;18.88;10.38;;;;;;;;;;5029306;28;20041;-58
2023/01/29 00:33:24;;;;;;;14.05;8.10;;;5.30;1.00;;;;;;5041403;28;20571;-59
2023/01/29 00:35:50;;;;;;;12.55;7.78;;;;;;;;;;5036808;28;20170;-59
2023/01/29 00:47:03;;;;;;;14.48;7.53;;;5.10;1.00;;;;;;5031963;28;20052;-59
2023/01/29 00:49:30;;;;;;;15.68;8.63;;;4.50;1.00;;;;;;5041788;28;20108;-58
2023/01/29 00:55:14;;;;;;;14.05;7.80;;;;;;;;;;5044967;28;20048;-56
2023/01/29 00:57:41;;;;;;;14.07;8.13;;;;;;;;;;5049111;28;20513;-59
2023/01/29 01:00:13;;;;;;;12.02;7.22;;;;;;;;;;5036225;28;20037;-58
2023/01/29 01:12:13;;;;;;;14.05;7.32;;;5.30;1.00;;;;;;5034951;28;20045;-59
2023/01/29 01:14:42;;;;;;;11.80;6.68;;;;;;;;;;5048531;28;20049;-59
2023/01/29 01:27:06;;;;;;;15.15;8.48;;;;;;;;;;5087571;22;20072;-55
2023/01/29 01:29:33;;;;;;;17.30;9.25;;;;;;;;;;5062005;22;20095;-59
2023/01/29 01:31:59;;;;;;;18.52;10.20;;;;;;;;;;5042608;28;20510;-60
2023/01/29 01:34:28;;;;;;;15.43;8.25;;;5.40;1.00;;;;;;5047792;28;20045;-59
2023/01/29 01:36:59;;;;;;;18.45;10.18;;;;;;;;;;5044639;28;20494;-60
2023/01/29 01:39:25;;;;;;;16.58;9.57;;;5.30;1.00;;;;;;5044646;28;20032;-60
2023/01/29 01:41:55;;;;;;;17.13;10.32;;;;;;;;;;5052817;28;20171;-59
2023/01/29 01:44:39;;;;;;;18.10;10.82;;;;;;;;;;5050879;28;20087;-59
2023/01/29 01:47:07;;;;;;;17.70;10.68;;;5.30;1.00;;;;;;5051918;28;20033;-57
2023/01/29 01:49:33;;;;;;;18.25;10.32;;;;;;;;;;5046089;28;20032;-59
2023/01/29 01:51:59;;;;;;;16.65;10.45;;;;;;;;;;5046088;28;20063;-59
2023/01/29 01:54:34;;;;;;;18.95;9.88;;;5.70;1.00;;;;;;5051853;28;20045;-59
2023/01/29 01:57:14;;;;;;;19.83;10.68;;;;;;;;;;5051766;28;20045;-59
2023/01/29 01:59:42;;;;;;;17.63;9.70;;;;;;;;;;5045525;28;20063;-58
2023/01/29 02:10:45;;;;;;;19.67;10.98;;;;;;;;;;5050812;28;20490;-59
2023/01/29 02:13:14;;;;;;;18.25;11.25;;;;;;;;;;5049889;28;20087;-59
2023/01/29 02:15:47;;;;;;;18.88;10.05;;;;;;;;;;5052092;28;20045;-59
2023/01/29 02:18:17;;;;;;;20.80;12.02;;;;;;;;;;5051949;28;20452;-59
2023/01/29 02:21:08;;;;;;;19.13;11.38;;;;;;;;;;5047549;28;20494;-59
2023/01/29 02:24:20;;;;;;;23.17;12.95;;;4.80;1.00;;;;;;5051179;28;20044;-59
2023/01/29 02:26:46;;;;;;;21.90;13.00;;;;;;;;;;5050688;28;20068;-59
2023/01/29 02:29:21;;;;;;;20.45;12.45;;;;;;;;;;5049596;28;20029;-59
2023/01/29 02:32:16;;;;;;;24.13;13.82;;;5.60;1.00;;;;;;5044157;28;20120;-58
2023/01/29 02:37:55;;;;;;;21.65;12.82;;;4.40;1.00;;;;;;5048325;28;20048;-59
2023/01/29 02:40:27;;;;;;;23.00;12.75;;;;;;;;;;5050324;28;20041;-59
2023/01/29 02:43:04;;;;;;;22.23;13.00;;;4.40;1.00;;;;;;5042368;28;20037;-60
2023/01/29 02:45:43;;;;;;;25.50;12.45;;;;;;;;;;5039405;28;20035;-58
2023/01/29 02:48:13;;;;;;;20.48;12.80;;;;;;;;;;5065362;28;20593;-60
2023/01/29 02:51:04;;;;;;;21.88;12.90;;;;;;;;;;5050386;28;20045;-59
2023/01/29 02:53:49;;;;;;;21.55;13.55;;;;;;;;;;5050893;28;20044;-58
2023/01/29 02:56:18;;;;;;;20.48;12.32;;;;;;;;;;5044451;28;20037;-60
2023/01/29 02:58:50;;;;;;;23.70;14.05;;;;;;;;;;5044631;28;20490;-58
2023/01/29 03:01:30;;;;;;;22.95;13.63;;;;;;;;;;5051000;28;20128;-59
2023/01/29 03:04:17;;;;;;;22.42;12.82;;;5.30;1.00;;;;;;5045885;28;20394;-58
2023/01/29 03:06:57;;;;;;;22.05;13.52;;;5.20;1.00;;;;;;5040334;28;20041;-59
2023/01/29 03:09:34;;;;;;;21.42;12.27;;;5.50;1.00;;;;;;5040589;28;20040;-58
2023/01/29 03:12:27;;;;;;;21.10;13.27;;;4.60;1.00;;;;;;5049240;28;20040;-59
2023/01/29 03:15:15;;;;;;;24.38;14.18;;;;;;;;;;5063959;28;20111;-57
2023/01/29 03:17:51;;;;;;;21.52;13.00;;;;;;;;;;5049593;28;20033;-58
2023/01/29 03:20:21;;;;;;;22.60;12.75;;;4.60;1.00;;;;;;5051449;28;20040;-58
2023/01/29 03:22:52;;;;;;;23.63;13.45;;;;;;;;;;5047981;28;20041;-59
2023/01/29 03:34:15;;;;;;;21.35;12.63;;;;;;;;;;5050257;28;20049;-59
2023/01/29 03:36:54;;;;;;;22.10;13.35;;;;;;;;;;5049517;28;20124;-58
2023/01/29 03:39:21;;;;;;;24.20;15.05;;;;;;;;;;5043117;28;20041;-58
2023/01/29 03:41:48;;;;;;;22.73;13.57;;;;;;;;;;5042221;28;20045;-59
2023/01/29 03:44:33;;;;;;;29.50;15.02;;;;;;;;;;5034582;28;20040;-56
2023/01/29 03:47:28;;;;;;;25.50;14.05;;;5.30;1.00;;;;;;5045864;28;20470;-58
2023/01/29 03:50:08;;;;;;;24.55;13.98;;;;;;;;;;5041602;28;20099;-59
2023/01/29 03:52:34;;;;;;;27.40;15.70;;;;;;;;;;5039182;28;20042;-62
2023/01/29 03:55:05;;;;;;;25.55;15.07;;;;;;;;;;5039987;28;20041;-59
2023/01/29 03:57:37;;;;;;;23.83;14.43;;;;;;;;;;5046546;28;20036;-59
2023/01/29 04:00:07;;;;;;;25.73;15.55;;;;;;;;;;5042385;28;20127;-59
2023/01/29 04:02:40;;;;;;;23.65;12.13;;;;;;;;;;5045777;28;20041;-59
2023/01/29 04:05:12;;;;;;;24.45;13.77;;;;;;;;;;5038349;28;20044;-60
2023/01/29 04:07:43;;;;;;;19.80;12.07;;;;;;;;;;5041797;28;20398;-59
2023/01/29 04:10:18;;;;;;;23.58;13.93;;;5.40;1.00;;;;;;5041387;28;20044;-58
2023/01/29 04:12:49;;;;;;;21.98;13.18;;;;;;;;;;5046483;28;20039;-58
2023/01/29 04:15:18;;;;;;;20.05;12.43;;;5.10;1.00;;;;;;5045485;28;20041;-58
2023/01/29 04:17:52;;;;;;;20.27;12.68;;;;;;;;;;5042904;28;20174;-59
2023/01/29 04:20:19;;;;;;;23.65;11.75;;;;;;;;;;5044334;28;20056;-58
2023/01/29 04:22:49;;;;;;;20.55;12.50;;;5.30;1.00;;;;;;5041499;28;20123;-58
2023/01/29 04:25:25;;;;;;;21.67;11.85;;;4.50;1.00;;;;;;5044969;28;20044;-57
2023/01/29 04:28:10;;;;;;;22.98;11.93;;;;;;;;;;5033362;28;20025;-58
2023/01/29 04:30:36;;;;;;;;;;;;;;;;;;5048873;28;20070;-58
2023/01/29 04:33:17;;;;;;;18.90;10.82;;;;;;;;;;5034869;28;19923;-56
2023/01/29 04:35:49;;;;;;;20.00;11.20;;;;;;;;;;5059219;28;20399;-57
2023/01/29 04:38:34;;;;;;;20.45;11.35;;;;;;;;;;5045255;28;20120;-58
2023/01/29 04:41:05;;;;;;;15.90;10.45;;;;;;;;;;5107960;22;20040;-67
2023/01/29 04:43:40;;;;;;;17.67;10.55;;;;;;;;;;5050028;28;20033;-66
2023/01/29 04:46:29;;;;;;;17.10;10.52;;;;;;;;;;5046921;28;20498;-66
2023/01/29 04:49:13;;;;;;;20.92;12.02;;;5.40;1.00;;;;;;5002357;28;20556;-67
2023/01/29 04:51:43;;;;;;;16.73;10.15;;;5.20;1.00;;;;;;5035100;28;20045;-67
2023/01/29 04:54:24;;;;;;;21.20;12.15;;;5.30;1.00;;;;;;5035481;28;20044;-66
2023/01/29 04:56:50;;;;;;;19.73;11.88;;;;;;;;;;5114593;22;20053;-54
2023/01/29 04:59:19;;;;;;;20.17;12.13;;;;;;;;;;5045953;28;20520;-54
2023/01/29 05:01:46;;;;;;;20.48;12.55;;;;;;;;;;5040551;28;20178;-54
2023/01/29 05:04:13;;;;;;;19.67;11.18;;;;;;;;;;5041632;28;20051;-54
2023/01/29 05:06:41;;;;;;;21.30;12.70;;;;;;;;;;5040399;28;20045;-54
2023/01/29 05:09:08;;;;;;;21.65;11.80;;;5.80;1.00;;;;;;5043944;28;20552;-54
2023/01/29 05:11:35;;;;;;;22.58;11.82;;;;;;;;;;5036430;28;20490;-52
2023/01/29 05:14:05;;;;;;;17.00;10.90;;;5.40;1.00;;;;;;5027452;28;20486;-52
2023/01/29 05:16:47;;;;;;;19.35;11.45;;;;;;;;;;5040819;28;20037;-54
2023/01/29 05:19:14;;;;;;;18.75;11.13;;;5.30;1.00;;;;;;5042023;28;20124;-54
2023/01/29 05:21:43;;;;;;;18.48;11.18;;;5.40;1.00;;;;;;5038490;28;20310;-53
2023/01/29 05:24:29;;;;;;;18.65;10.55;;;5.40;1.00;;;;;;5043977;28;20108;-54
2023/01/29 05:29:43;;;;;;;17.40;11.20;;;;;;;;;;5037960;28;20041;-55
2023/01/29 05:32:09;;;;;;;18.00;10.68;;;;;;;;;;5034652;28;20042;-55
2023/01/29 05:34:35;;;;;;;17.08;9.05;;;;;;;;;;5029974;28;20092;-52
2023/01/29 05:37:04;;;;;;;20.90;12.23;;;5.30;1.00;;;;;;5031218;28;20466;-55
2023/01/29 05:39:30;;;;;;;21.80;12.13;;;;;;;;;;5038762;28;20467;-53
2023/01/29 05:41:56;;;;;;;19.38;11.93;;;;;;;;;;5042755;28;20153;-54
2023/01/29 05:44:22;;;;;;;23.42;14.02;;;;;;;;;;5036932;28;20049;-54
2023/01/29 05:46:49;;;;;;;26.40;13.02;;;5.60;1.00;;;;;;5039900;28;20112;-54
2023/01/29 05:49:16;;;;;;;23.08;13.07;;;;;;;;;;5047522;28;20037;-55
2023/01/29 05:51:42;;;;;;;23.35;12.20;;;;;;;;;;5040421;28;20170;-54
2023/01/29 05:54:11;;;;;;;21.55;14.27;;;;;;;;;;5038719;28;20029;-54
2023/01/29 05:56:37;;;;;;;23.00;13.93;;;;;;;;;;5040959;28;20049;-53
2023/01/29 05:59:03;;;;;;;22.98;13.10;;;;;;;;;;5031195;28;20398;-54
2023/01/29 06:01:29;;;;;;;25.25;14.60;;;;;;;;;;5039212;28;20044;-53
2023/01/29 06:03:55;;;;;;;23.10;13.70;;;;;;;;;;5038929;28;20136;-54
2023/01/29 06:06:21;;;;;;;23.08;13.52;;;;;;;;;;5032412;28;20116;-54
2023/01/29 06:08:47;;;;;;;24.25;13.52;;;;;;;;;;5033433;28;20034;-54
2023/01/29 06:11:13;;;;;;;21.42;13.63;;;;;;;;;;5032385;28;20068;-54
2023/01/29 06:13:40;;;;;;;22.10;12.88;;;;;;;;;;5041300;28;20380;-52
2023/01/29 06:16:10;;;;;;;21.42;13.93;;;;;;;;;;5043041;28;20037;-52
2023/01/29 06:18:36;;;;;;;27.23;15.18;;;;;;;;;;5042663;28;20485;-53
2023/01/29 06:21:06;;;;;;;23.13;13.43;;;;;;;;;;5040451;28;20549;-54
2023/01/29 06:23:32;;;;;;;24.98;15.35;;;;;;;;;;5031062;28;20037;-54
2023/01/29 06:26:03;;;;;;;29.23;16.17;;;4.50;1.00;;;;;;5039727;28;20037;-52
2023/01/29 06:28:29;;;;;;;30.85;16.73;;;4.60;1.00;;;;;;5035716;28;20061;-52
2023/01/29 06:30:59;;;;;;;33.10;18.55;;;;;;;;;;5033969;28;20048;-51
2023/01/29 06:33:25;;;;;;;25.15;14.70;;;;;;;;;;5047921;28;20406;-52
2023/01/29 06:35:55;;;;;;;23.40;13.85;;;;;;;;;;5044119;28;20041;-55
2023/01/29 06:38:21;;;;;;;28.70;17.15;;;;;;;;;;5039825;28;20044;-53
2023/01/29 06:40:47;;;;;;;30.80;17.55;;;;;;;;;;5030580;28;20049;-54
2023/01/29 06:43:13;;;;;;;34.22;17.73;;;;;;;;;;5041874;28;20053;-49
2023/01/29 06:45:45;;;;;;;31.85;18.92;;;;;;;;;;5040553;28;20067;-54
2023/01/29 06:48:11;;;;;;;33.83;19.92;;;;;;;;;;5047042;28;20049;-55
2023/01/29 06:50:37;;;;;;;38.05;19.10;;;4.90;1.00;;;;;;5048055;28;20155;-54
2023/01/29 06:53:02;;;;;;;31.23;18.23;;;4.80;1.00;;;;;;5046577;28;20051;-54
2023/01/29 06:55:28;;;;;;;28.92;18.23;;;4.80;1.00;;;;;;5040936;28;20037;-54
2023/01/29 06:57:54;;;;;;;31.48;17.83;;;;;;;;;;5025752;28;20065;-54
2023/01/29 07:00:20;;;;;;;29.40;19.05;;;;;;;;;;5032977;28;20520;-54
2023/01/29 07:02:49;;;;;;;34.78;20.60;;;5.10;1.00;;;;;;5044368;28;20439;-51
2023/01/29 07:05:15;;;;;;;35.50;19.63;;;;;;;;;;5040091;28;20073;-54
2023/01/29 07:07:41;;;;;;;36.80;21.77;;;;;;;;;;5042639;28;20041;-53
2023/01/29 07:10:07;;;;;;;31.35;18.38;;;5.00;1.00;;;;;;5048051;28;20037;-52
2023/01/29 07:12:33;;;;;;;33.03;19.85;;;;;;;;;;5047751;28;20056;-55
2023/01/29 07:14:59;;;;;;;32.90;20.70;;;;;;;;;;5049168;28;20040;-51
2023/01/29 07:17:25;;;;;;;35.72;20.75;;;;;;;;;;5047026;28;20047;-52
2023/01/29 07:19:51;;;;;;;38.33;20.08;;;;;;;;;;5047505;28;20304;-54
2023/01/29 07:22:17;;;;;;;36.03;20.88;;;;;;;;;;5039688;28;20032;-55
2023/01/29 07:24:43;;;;;;;33.33;20.85;;;;;;;;;;5040237;28;20063;-53
2023/01/29 07:27:09;;;;;;;39.35;23.30;;;;;;;;;;5047725;28;20434;-54
2023/01/29 07:29:35;;;;;;;34.88;20.25;;;4.70;1.00;;;;;;5045186;28;20037;-55
2023/01/29 07:32:00;;;;;;;34.78;19.02;;;4.70;1.00;;;;;;5034392;28;20037;-54
2023/01/29 07:34:26;;;;;;;41.40;24.17;;;;;;;;;;5043146;28;20036;-52
2023/01/29 07:36:53;;;;;;;47.60;25.17;;;;;;;;;;5041822;28;20051;-51
2023/01/29 07:39:19;;;;;;;38.88;21.45;;;;;;;;;;5046237;28;20047;-53
2023/01/29 07:41:45;;;;;;;49.13;24.05;;;;;;;;;;5044898;28;20395;-51
2023/01/29 07:44:11;;;;;;;46.53;24.27;;;;;;;;;;5045902;28;20041;-53
2023/01/29 07:46:37;;;;;;;50.08;26.35;;;;;;;;;;5042837;28;20044;-53
2023/01/29 07:49:03;;;;;;;47.78;27.75;;;;;;;;;;5042817;28;20034;-54
2023/01/29 07:51:29;;;;;;;42.67;22.73;;;;;;;;;;5046300;28;20572;-55
2023/01/29 07:53:55;;;;;;;36.97;19.88;;;;;;;;;;5042315;28;20048;-51
2023/01/29 07:56:21;;;;;;;42.75;22.10;;;;;;;;;;5044885;28;20049;-54
2023/01/29 07:58:47;;;;;;;51.53;23.58;;;4.80;1.00;;;;;;5038908;28;20037;-54
2023/01/29 08:01:13;;;;;;;52.13;29.73;;;;;;;;;;5052089;22;20048;-76
2023/01/29 08:03:38;;;;;;;52.70;27.23;;;4.80;1.00;;;;;;5034652;28;20502;-75
2023/01/29 08:06:04;;;;;;;41.65;21.95;;;;;;;;;;5033619;28;20041;-74
2023/01/29 08:08:31;;;;;;;59.58;31.65;;;;;;;;;;5043338;28;20037;-74
2023/01/29 08:10:57;;;;;;;57.00;32.20;;;;;;;;;;5038163;28;20411;-73
2023/01/29 08:13:23;;;;;;;43.17;23.95;;;;;;;;;;5022925;28;20044;-73
2023/01/29 08:15:49;;;;;;;52.33;26.67;;;;;;;;;;5028528;28;20041;-73
2023/01/29 08:18:15;;;;;;;48.90;27.25;;;;;;;;;;5029532;28;20365;-74
2023/01/29 08:20:40;;;;;;;54.88;29.95;;;4.60;1.00;;;;;;5023002;28;20041;-74
2023/01/29 08:23:07;;;;;;;57.28;30.60;;;;;;;;;;5036902;28;20159;-74
2023/01/29 08:25:34;;;;;;;57.35;29.88;;;;;;;;;;5048396;28;20406;-74
2023/01/29 08:28:00;;;;;;;47.40;24.48;;;;;;;;;;5025209;28;20041;-73
2023/01/29 08:30:27;;;;;;;55.85;30.15;;;;;;;;;;5021797;28;20410;-74
2023/01/29 08:32:53;;;;;;;55.80;29.70;;;;;;;;;;5043682;28;20102;-74
2023/01/29 08:35:20;;;;;;;53.92;28.40;;;;;;;;;;5028723;28;20112;-74
2023/01/29 08:37:52;;;;;;;48.25;28.85;;;;;;;;;;5047871;28;20409;-75
2023/01/29 08:40:17;;;;;;;51.90;27.95;;;4.80;1.00;;;;;;5036976;28;20037;-75
2023/01/29 08:42:43;;;;;;;51.45;27.40;;;4.80;1.00;;;;;;5049449;28;20114;-75
2023/01/29 08:45:09;;;;;;;49.30;28.55;;;4.80;1.00;;;;;;5049913;28;20037;-75
2023/01/29 08:47:35;;;;;;;52.97;29.45;;;;;;;;;;5047379;28;20037;-75
2023/01/29 08:50:01;;;;;;;50.58;28.45;;;;;;;;;;5047855;28;20573;-76
2023/01/29 08:52:27;;;;;;;55.58;29.88;;;;;;;;;;5044483;28;20379;-77
2023/01/29 08:54:53;;;;;;;45.17;23.33;;;;;;;;;;5025243;28;20283;-76
2023/01/29 08:57:19;;;;;;;45.97;25.27;;;;;;;;;;5030266;28;20040;-76
2023/01/29 08:59:45;;;;;;;52.15;27.85;;;4.80;1.00;;;;;;5040646;28;20037;-77
2023/01/29 09:02:11;;;;;;;52.92;28.80;;;;;;;;;;5048472;28;20048;-78
2023/01/29 09:04:37;;;;;;;52.83;29.00;;;;;;;;;;5047898;28;20028;-78
2023/01/29 09:07:02;;;;;;;43.15;24.25;;;4.90;1.00;;;;;;5049024;28;20581;-79
2023/01/29 09:09:28;;;;;;;49.95;28.05;;;;;;;;;;5050611;28;20040;-81
2023/01/29 09:11:54;;;;;;;60.05;31.42;;;;;;;;;;5056138;28;20041;-83
2023/01/29 09:14:20;;;;;;;54.75;29.55;;;;;;;;;;5042289;28;20290;-86
2023/01/29 09:16:46;;;;;;;41.33;24.13;;;;;;;;;;5045930;28;20152;-88
2023/01/29 09:19:12;;;;;;;50.53;29.85;;;;;;;;;;5043491;28;20045;-87
2023/01/29 09:21:38;;;;;;;51.63;27.55;;;;;;;;;;5055868;28;20086;-87
2023/01/29 09:24:05;;;;;;;56.08;29.50;;;;;;;;;;5031166;28;20041;-87
2023/01/29 09:26:31;;;;;;;39.80;20.15;;;;;;;;;;5034339;28;20265;-87
2023/01/29 09:28:57;;;;;;;55.15;27.75;;;;;;;;;;5035822;28;20037;-88
2023/01/29 09:31:23;;;;;;;37.15;21.42;;;;;;;;;;5017715;28;20399;-88
2023/01/29 09:33:49;;;;;;;48.28;27.80;;;;;;;;;;5031207;28;20037;-88
2023/01/29 09:36:15;;;;;;;46.60;24.88;;;;;;;;;;5030205;28;20052;-88
2023/01/29 09:38:41;;;;;;;37.50;17.40;;;;;;;;;;5031362;28;20414;-88
2023/01/29 09:41:15;;;;;;;52.78;28.88;;;;;;;;;;5029254;28;20475;-87
2023/01/29 09:43:47;;;;;;;47.63;24.53;;;;;;;;;;5031837;28;20044;-86
2023/01/29 09:46:16;;;;;;;52.97;26.00;;;;;;;;;;5041480;28;20037;-87
2023/01/29 09:48:44;;;;;;;51.17;26.33;;;4.80;1.00;;;;;;5035833;28;20039;-85
2023/01/29 09:51:30;;;;;;;42.22;22.80;;;5.40;1.00;;;;;;5050755;28;20041;-85
2023/01/29 09:54:06;;;;;;;46.58;24.65;;;;;;;;;;5035090;28;20064;-85
2023/01/29 09:56:32;;;;;;;28.35;16.70;;;;;;;;;;5034997;28;20524;-85
2023/01/29 09:58:58;;;;;;;47.35;24.17;;;;;;;;;;5053072;28;20449;-84
2023/01/29 10:01:43;;;;;;;45.20;24.13;;;;;;;;;;5039158;28;20044;-86
2023/01/29 10:04:15;;;;;;;47.03;24.98;;;;;;;;;;5037905;28;20071;-83
2023/01/29 10:06:41;;;;;;;50.58;26.27;;;;;;;;;;5056861;28;20106;-81
2023/01/29 10:09:35;;;;;;;37.65;19.52;;;5.10;1.00;;;;;;5047690;28;20096;-81
2023/01/29 10:12:08;;;;;;;53.25;25.45;;;;;;;;;;5063135;28;20109;-80
2023/01/29 10:14:40;;;;;;;47.20;23.45;;;;;;;;;;5036645;28;20090;-79
2023/01/29 10:17:22;;;;;;;43.35;22.33;;;;;;;;;;5047208;28;20137;-79
2023/01/29 10:20:00;;;;;;;38.17;19.98;;;5.60;1.00;;;;;;5053104;28;20563;-80
2023/01/29 10:22:26;;;;;;;41.97;21.15;;;;;;;;;;5060190;28;20040;-80
2023/01/29 10:24:56;;;;;;;42.15;19.80;;;;;;;;;;5063102;28;20048;-80
2023/01/29 10:27:23;;;;;;;45.13;23.30;;;;;;;;;;5055979;28;20040;-80
2023/01/29 10:29:51;;;;;;;45.53;23.35;;;5.90;1.00;;;;;;5059196;28;20132;-80
2023/01/29 10:32:19;;;;;;;39.63;20.83;;;;;;;;;;5048818;28;20450;-80
2023/01/29 10:34:48;;;;;;;34.25;20.08;;;;;;;;;;5031967;28;20038;-80
2023/01/29 10:37:23;;;;;;;31.33;16.40;;;;;;;;;;5033914;28;20033;-81
2023/01/29 10:39:49;;;;;;;42.45;22.15;;;5.60;1.00;;;;;;5052223;28;20033;-80
2023/01/29 10:42:35;;;;;;;45.03;22.38;;;;;;;;;;5051977;28;20040;-80
2023/01/29 10:45:20;;;;;;;35.05;18.33;;;;;;;;;;5071848;28;20033;-80
2023/01/29 10:48:12;;;;;;;32.53;17.33;;;;;;;;;;5050013;28;20034;-80
2023/01/29 10:50:52;;;;;;;46.45;24.92;;;;;;;;;;5029371;28;20410;-80
2023/01/29 10:53:38;;;;;;;41.95;20.77;;;;;;;;;;5033481;28;20131;-80
2023/01/29 10:56:49;;;;;;;38.30;21.48;;;5.70;1.00;;;;;;5101603;23;20048;-66
2023/01/29 10:59:24;;;;;;;38.65;18.60;;;;;;;;;;5043898;28;20135;-66
2023/01/29 11:01:49;;;;;;;42.85;22.42;;;5.70;1.00;;;;;;5047451;28;20506;-66
2023/01/29 11:04:15;;;;;;;35.30;18.83;;;5.80;1.00;;;;;;5034742;28;20073;-65
2023/01/29 11:06:41;;;;;;;42.92;21.30;;;;;;;;;;5030138;28;20567;-65
2023/01/29 11:09:28;;;;;;;30.90;16.52;;;;;;;;;;5039931;28;20090;-66
2023/01/29 11:11:57;;;;;;;37.33;19.45;;;;;;;;;;5021534;28;20406;-65
2023/01/29 11:14:36;;;;;;;31.23;16.63;;;5.60;1.00;;;;;;5039023;28;20494;-65
2023/01/29 11:17:03;;;;;;;40.85;19.55;;;;;;;;;;5039980;28;20042;-65
2023/01/29 11:19:37;;;;;;;31.35;16.25;;;5.90;1.00;;;;;;5034124;28;20411;-65
2023/01/29 11:22:03;;;;;;;39.45;20.65;;;;;;;;;;5026366;28;20510;-66
2023/01/29 11:24:29;;;;;;;27.75;15.88;;;5.80;1.00;;;;;;5032092;28;20499;-65
2023/01/29 11:26:56;;;;;;;39.20;20.65;;;;;;;;;;5032197;28;20037;-65
2023/01/29 11:29:38;;;;;;;45.08;23.20;;;;;;;;;;5029827;28;20491;-65
2023/01/29 11:32:23;;;;;;;33.17;16.50;;;;;;;;;;5033130;28;20041;-66
2023/01/29 11:34:58;;;;;;;21.92;11.05;;;5.80;1.00;;;;;;5036335;28;20072;-65
2023/01/29 11:37:36;;;;;;;37.20;17.90;;;5.80;1.00;;;;;;5034337;28;20124;-66
2023/01/29 11:40:22;;;;;;;34.83;17.98;;;;;;;;;;5009579;28;20415;-65
2023/01/29 11:42:48;;;;;;;20.58;10.20;;;5.90;1.00;;;;;;5037127;28;20386;-64
2023/01/29 11:45:20;;;;;;;25.30;12.40;;;;;;;;;;5020164;28;20037;-65
2023/01/29 11:47:52;;;;;;;20.15;10.93;;;;;;;;;;5025310;28;20061;-65
2023/01/29 11:50:23;;;;;;;31.08;15.45;;;;;;;;;;5018688;28;20096;-63
2023/01/29 11:52:50;;;;;;;27.90;14.80;;;;;;;;;;5014148;28;20144;-65
2023/01/29 11:55:16;;;;;;;28.65;14.55;;;;;;;;;;5012643;28;20615;-64
2023/01/29 11:57:43;;;;;;;27.13;14.63;;;;;;;;;;5016406;28;20372;-65
2023/01/29 12:00:24;;;;;;;27.00;13.43;;;6.60;1.00;;;;;;5007637;28;20192;-64
2023/01/29 12:02:55;;;;;;;29.70;12.80;;;;;;;;;;5016690;28;20405;-65
2023/01/29 12:05:25;;;;;;;21.17;10.73;;;;;;;;;;5016567;28;20034;-65
2023/01/29 12:07:53;;;;;;;22.95;12.00;;;;;;;;;;5013067;28;20398;-66
2023/01/29 12:10:31;;;;;;;28.02;13.80;;;;;;;;;;5026953;28;20045;-66
2023/01/29 12:13:09;;;;;;;23.13;11.20;;;;;;;;;;5029313;28;20124;-64
2023/01/29 12:15:37;;;;;;;25.65;12.90;;;5.90;1.00;;;;;;5027513;28;20056;-64
2023/01/29 12:18:07;;;;;;;26.92;12.88;;;;;;;;;;5019767;28;20513;-64
2023/01/29 12:20:40;;;;;;;25.90;11.73;;;;;;;;;;5022301;28;20120;-67
2023/01/29 12:23:22;;;;;;;22.55;9.32;;;6.20;1.00;;;;;;5023494;28;20048;-65
2023/01/29 12:26:05;;;;;;;19.75;9.52;;;6.20;1.00;;;;;;5012151;28;20415;-64
2023/01/29 12:28:36;;;;;;;13.95;7.13;;;;;;;;;;5020351;28;20078;-66
2023/01/29 12:31:27;;;;;;;22.10;8.65;;;6.20;1.00;;;;;;5031338;28;20049;-65
2023/01/29 12:34:16;;;;;;;20.38;8.75;;;;;;;;;;5029717;28;20067;-66
2023/01/29 12:36:54;;;;;;;20.15;8.57;;;;;;;;;;5035075;28;20046;-66
2023/01/29 12:39:20;;;;;;;19.35;8.55;;;;;;;;;;5020879;28;20037;-66
2023/01/29 12:41:46;;;;;;;18.30;8.52;;;;;;;;;;5028417;28;20120;-65
2023/01/29 12:44:17;;;;;;;21.92;9.57;;;;;;;;;;5035050;28;20571;-65
2023/01/29 12:46:49;;;;;;;18.95;8.65;;;;;;;;;;5028326;28;20040;-64
2023/01/29 12:49:18;;;;;;;22.13;7.68;;;;;;;;;;5030272;28;20069;-65
2023/01/29 12:52:05;;;;;;;18.58;7.85;;;6.80;1.00;;;;;;5029670;28;20506;-63
2023/01/29 12:54:34;;;;;;;22.50;9.93;;;;;;;;;;5021708;28;20044;-65
2023/01/29 12:57:02;;;;;;;20.58;9.98;;;;;;;;;;5034821;28;20037;-64
2023/01/29 12:59:31;;;;;;;17.45;7.45;;;;;;;;;;5030418;28;20037;-64
2023/01/29 13:02:01;;;;;;;17.92;8.20;;;;;;;;;;5032092;28;20091;-64
2023/01/29 13:04:34;;;;;;;20.73;8.82;;;;;;;;;;5026048;28;20564;-64
2023/01/29 13:07:22;;;;;;;17.00;6.28;;;;;;;;;;5036388;28;20037;-64
2023/01/29 13:09:50;;;;;;;13.80;5.93;;;;;;;;;;5034138;28;20095;-64
2023/01/29 13:12:18;;;;;;;16.20;4.72;;;6.70;1.00;;;;;;5010247;28;20128;-63
2023/01/29 13:14:47;;;;;;;14.93;4.50;;;;;;;;;;5013606;28;20542;-64
2023/01/29 13:17:19;;;;;;;7.50;3.15;;;;;;;;;;5011444;28;20434;-62
2023/01/29 13:19:47;;;;;;;10.63;3.83;;;;;;;;;;5014775;28;20087;-63
2023/01/29 13:22:27;;;;;;;13.57;5.05;;;6.20;1.00;;;;;;5018490;28;20042;-63
2023/01/29 13:24:55;;;;;;;43.03;7.00;;;5.90;1.00;;;;;;5012689;28;20812;-63
2023/01/29 13:27:30;;;;;;;11.85;5.15;;;;;;;;;;5018748;28;20046;-62
2023/01/29 13:29:56;;;;;;;11.57;4.00;;;6.50;1.00;;;;;;5012880;28;20124;-64
2023/01/29 13:32:29;;;;;;;9.98;3.90;;;7.20;1.00;;;;;;5017342;28;21046;-63
2023/01/29 13:34:56;;;;;;;7.38;3.35;;;;;;;;;;5013004;28;20091;-63
2023/01/29 13:37:28;;;;;;;6.68;2.88;;;6.30;1.00;;;;;;5018893;28;20494;-63
2023/01/29 13:39:54;;;;;;;10.70;5.03;;;;;;;;;;5010131;28;20041;-63
2023/01/29 13:42:22;;;;;;;7.22;3.03;;;;;;;;;;5011883;28;20045;-63
2023/01/29 13:44:50;;;;;;;8.02;3.55;;;6.90;1.00;;;;;;5017565;28;20048;-62
2023/01/29 13:47:31;;;;;;;13.35;4.50;;;6.40;1.00;;;;;;5019349;28;20038;-63
2023/01/29 13:50:05;;;;;;;11.02;4.63;;;7.20;1.00;;;;;;5003589;28;20041;-64
2023/01/29 13:52:38;;;;;;;12.90;4.93;;;;;;;;;;5012357;28;20034;-63
2023/01/29 13:55:24;;;;;;;10.50;5.47;;;;;;;;;;5012384;28;20037;-63
2023/01/29 13:57:53;;;;;;;13.25;4.15;;;6.40;1.00;;;;;;5021388;28;20475;-63
2023/01/29 14:00:29;;;;;;;7.90;3.53;;;6.50;1.00;;;;;;5012854;28;20050;-63
2023/01/29 14:03:04;;;;;;;9.23;4.25;;;6.40;1.00;;;;;;5016456;28;20033;-62
2023/01/29 14:05:30;;;;;;;10.05;5.03;;;;;;;;;;5020766;28;20046;-62
2023/01/29 14:07:58;;;;;;;10.65;5.38;;;;;;;;;;5024331;28;20038;-64
2023/01/29 14:10:24;;;;;;;12.52;5.97;;;;;;;;;;5027077;28;20045;-64
2023/01/29 14:12:52;;;;;;;13.82;5.60;;;5.90;1.00;;;;;;5024663;28;20496;-64
2023/01/29 14:15:22;;;;;;;13.15;6.95;;;;;;;;;;5019702;28;20045;-63
2023/01/29 14:17:54;;;;;;;9.98;4.95;;;;;;;;;;5022072;28;20038;-64
2023/01/29 14:20:26;;;;;;;15.05;6.90;;;6.30;1.00;;;;;;5022518;28;20120;-63
2023/01/29 14:22:58;;;;;;;15.15;5.88;;;;;;;;;;5029097;28;20033;-64
2023/01/29 14:25:30;;;;;;;15.90;5.88;;;6.70;1.00;;;;;;5027562;28;20045;-63
2023/01/29 14:27:58;;;;;;;18.10;6.43;;;6.40;1.00;;;;;;5028363;28;20107;-64
2023/01/29 14:30:24;;;;;;;13.32;6.18;;;;;;;;;;5018702;28;20037;-65
2023/01/29 14:32:50;;;;;;;16.63;6.85;;;6.40;1.00;;;;;;5033317;28;20398;-62
2023/01/29 14:35:22;;;;;;;17.10;5.65;;;7.00;1.00;;;;;;5022177;28;20037;-62
2023/01/29 14:37:50;;;;;;;17.50;6.20;;;;;;;;;;5027094;28;20506;-63
2023/01/29 14:40:22;;;;;;;15.52;6.40;;;;;;;;;;5007387;28;20049;-63
2023/01/29 14:43:04;;;;;;;14.52;5.80;;;6.10;1.00;;;;;;5026479;28;20044;-64
2023/01/29 14:45:30;;;;;;;17.13;6.32;;;;;;;;;;5017584;28;20377;-63
2023/01/29 14:47:58;;;;;;;15.23;6.05;;;;;;;;;;5015761;28;20092;-64
2023/01/29 14:50:30;;;;;;;16.45;6.63;;;;;;;;;;5017435;28;20652;-63
2023/01/29 14:52:59;;;;;;;15.57;6.47;;;;;;;;;;5014216;28;20038;-63
2023/01/29 14:55:41;;;;;;;11.85;6.32;;;;;;;;;;5014605;28;20128;-63
2023/01/29 14:58:14;;;;;;;14.80;4.57;;;6.80;1.00;;;;;;5018899;28;20033;-62
2023/01/29 15:00:44;;;;;;;10.20;4.70;;;7.00;1.00;;;;;;5017785;28;20107;-62
2023/01/29 15:03:18;;;;;;;17.65;6.60;;;;;;;;;;5020640;28;20124;-63
2023/01/29 15:05:45;;;;;;;18.83;5.03;;;;;;;;;;5012132;28;20038;-63
2023/01/29 15:08:28;;;;;;;19.33;7.80;;;6.40;1.00;;;;;;5018593;28;20606;-63
2023/01/29 15:14:01;;;;;;;14.98;6.68;;;5.90;1.00;;;;;;5030687;28;20045;-64
2023/01/29 15:16:57;;;;;;;11.88;4.05;;;;;;;;;;5016759;28;20049;-63